createdAt,value
2022-11-17T00:01:35.222Z,24.88
2022-11-17T00:06:29.325Z,24.58
2022-11-17T00:11:23.250Z,24.05
2022-11-17T00:16:19.331Z,24.55
2022-11-17T00:21:32.452Z,27.80
2022-11-17T00:26:34.192Z,27.25
2022-11-17T00:31:48.625Z,22.43
2022-11-17T00:36:45.183Z,23.50
2022-11-17T00:41:39.620Z,23.98
2022-11-17T00:46:34.215Z,28.55
2022-11-17T00:51:28.529Z,29.83
2022-11-17T00:56:22.554Z,26.08
2022-11-17T01:01:16.718Z,27.15
2022-11-17T01:06:24.644Z,28.08
2022-11-17T01:11:21.026Z,31.23
2022-11-17T01:16:16.331Z,30.10
2022-11-17T01:21:16.545Z,26.20
2022-11-17T01:26:12.714Z,25.77
2022-11-17T01:31:13.820Z,23.63
2022-11-17T01:36:10.001Z,26.35
2022-11-17T01:41:06.766Z,32.30
2022-11-17T01:46:05.349Z,29.92
2022-11-17T01:50:58.676Z,26.02
2022-11-17T01:55:58.729Z,29.70
2022-11-17T02:00:51.761Z,23.30
2022-11-17T02:06:06.433Z,27.00
2022-11-17T02:11:01.202Z,25.80
2022-11-17T02:15:55.844Z,24.10
2022-11-17T02:21:06.373Z,24.58
2022-11-17T02:26:11.722Z,24.70
2022-11-17T02:31:19.081Z,23.60
2022-11-17T02:36:31.950Z,24.88
2022-11-17T02:41:32.208Z,25.73
2022-11-17T02:46:27.344Z,24.25
2022-11-17T02:51:23.156Z,25.95
2022-11-17T02:56:17.248Z,26.08
2022-11-17T03:01:57.827Z,21.30
2022-11-17T03:07:35.191Z,22.75
2022-11-17T03:12:49.065Z,24.95
2022-11-17T03:17:52.811Z,22.60
2022-11-17T03:22:48.776Z,17.60
2022-11-17T03:27:46.402Z,16.75
2022-11-17T03:32:42.243Z,18.02
2022-11-17T03:37:39.947Z,18.67
2022-11-17T03:42:35.671Z,20.48
2022-11-17T03:47:29.574Z,20.38
2022-11-17T03:57:41.418Z,19.23
2022-11-17T04:02:36.017Z,17.55
2022-11-17T04:07:31.056Z,22.83
2022-11-17T04:12:43.010Z,17.98
2022-11-17T04:17:38.177Z,21.60
2022-11-17T04:22:33.457Z,17.20
2022-11-17T04:27:46.752Z,19.73
2022-11-17T04:32:40.421Z,20.70
2022-11-17T04:37:34.245Z,24.60
2022-11-17T04:42:28.623Z,21.25
2022-11-17T04:47:22.226Z,17.65
2022-11-17T04:52:16.361Z,18.65
2022-11-17T04:57:10.632Z,19.35
2022-11-17T05:02:06.313Z,21.35
2022-11-17T05:07:00.460Z,19.80
2022-11-17T05:12:12.932Z,18.92
2022-11-17T05:17:09.816Z,22.87
2022-11-17T05:22:24.511Z,22.88
2022-11-17T05:27:17.609Z,26.60
2022-11-17T05:32:11.368Z,27.20
2022-11-17T05:37:05.381Z,30.20
2022-11-17T05:41:59.433Z,37.42
2022-11-17T05:46:53.077Z,37.53
2022-11-17T05:51:49.937Z,33.45
2022-11-17T05:56:54.086Z,35.22
2022-11-17T06:02:11.376Z,40.97
2022-11-17T06:07:05.630Z,40.42
2022-11-17T06:12:05.626Z,38.20
2022-11-17T06:17:04.963Z,33.58
2022-11-17T06:22:11.729Z,26.05
2022-11-17T06:27:07.208Z,25.98
2022-11-17T06:31:59.553Z,24.98
2022-11-17T06:36:54.373Z,29.52
2022-11-17T06:41:48.834Z,23.13
2022-11-17T06:46:47.638Z,37.30
2022-11-17T06:51:45.460Z,44.58
2022-11-17T06:56:39.850Z,41.08
2022-11-17T07:01:33.724Z,39.92
2022-11-17T07:06:27.643Z,37.97
2022-11-17T07:11:20.637Z,33.55
2022-11-17T07:16:22.949Z,35.05
2022-11-17T07:21:17.402Z,31.87
2022-11-17T07:26:10.681Z,36.50
2022-11-17T07:31:07.336Z,37.93
2022-11-17T07:36:05.802Z,38.95
2022-11-17T07:41:01.634Z,44.05
2022-11-17T07:45:56.151Z,39.65
2022-11-17T07:50:49.602Z,38.45
2022-11-17T07:55:47.076Z,41.03
2022-11-17T08:00:41.796Z,36.50
2022-11-17T08:05:41.679Z,40.10
2022-11-17T08:10:37.358Z,34.03
2022-11-17T08:15:34.079Z,34.85
2022-11-17T08:20:29.795Z,33.22
2022-11-17T08:25:25.162Z,28.30
2022-11-17T08:30:22.368Z,25.83
2022-11-17T08:35:18.760Z,24.38
2022-11-17T08:40:15.303Z,27.30
2022-11-17T08:45:11.855Z,25.58
2022-11-17T08:50:09.200Z,29.90
2022-11-17T08:55:03.424Z,37.00
2022-11-17T08:59:56.672Z,39.75
2022-11-17T09:04:51.539Z,45.40
2022-11-17T09:09:47.019Z,49.72
2022-11-17T09:14:45.156Z,50.97
2022-11-17T09:19:39.955Z,48.50
2022-11-17T09:24:33.955Z,50.90
2022-11-17T09:29:27.840Z,55.35
2022-11-17T09:34:21.504Z,51.30
2022-11-17T09:44:31.580Z,53.60
2022-11-17T09:49:42.954Z,48.60
2022-11-17T09:55:16.460Z,42.88
2022-11-17T10:00:22.596Z,43.97
2022-11-17T10:05:17.914Z,39.67
2022-11-17T10:10:15.530Z,41.88
2022-11-17T10:15:30.730Z,45.05
2022-11-17T10:20:24.760Z,42.08
2022-11-17T10:25:49.220Z,50.67
2022-11-17T10:35:37.714Z,46.85
2022-11-17T10:40:51.411Z,47.45
2022-11-17T10:46:07.076Z,50.65
2022-11-17T10:51:35.603Z,49.72
2022-11-17T10:56:31.816Z,53.25
2022-11-17T11:01:35.552Z,48.00
2022-11-17T11:06:30.424Z,52.72
2022-11-17T11:11:43.721Z,63.13
2022-11-17T11:16:37.908Z,52.38
2022-11-17T11:21:54.806Z,59.28
2022-11-17T11:27:06.568Z,52.88
2022-11-17T11:32:06.230Z,51.88
2022-11-17T11:37:20.362Z,53.00
2022-11-17T11:42:38.781Z,50.70
2022-11-17T11:48:09.425Z,47.00
2022-11-17T11:53:09.629Z,45.28
2022-11-17T11:58:09.125Z,44.70
2022-11-17T12:03:44.470Z,39.50
2022-11-17T12:08:44.169Z,43.70
2022-11-17T12:13:46.236Z,39.17
2022-11-17T12:18:43.465Z,42.05
2022-11-17T12:24:14.113Z,40.60
2022-11-17T12:29:23.191Z,39.67
2022-11-17T12:34:22.357Z,39.53
2022-11-17T12:39:53.761Z,40.10
2022-11-17T12:45:09.974Z,38.92
2022-11-17T12:50:27.930Z,39.63
2022-11-17T12:55:29.989Z,40.25
2022-11-17T13:00:24.815Z,40.40
2022-11-17T13:05:20.495Z,42.85
2022-11-17T13:10:32.014Z,40.88
2022-11-17T13:15:25.488Z,46.33
2022-11-17T13:20:31.105Z,48.63
2022-11-17T13:25:25.734Z,43.53
2022-11-17T13:30:21.601Z,45.97
2022-11-17T13:35:30.520Z,49.35
2022-11-17T13:40:25.191Z,47.55
2022-11-17T13:45:19.045Z,43.75
2022-11-17T13:50:23.044Z,49.63
2022-11-17T13:55:20.321Z,47.80
2022-11-17T14:00:21.759Z,45.58
2022-11-17T14:05:28.144Z,46.55
2022-11-17T14:10:21.288Z,46.55
2022-11-17T14:15:30.041Z,47.85
2022-11-17T14:20:24.729Z,50.00
2022-11-17T14:25:23.893Z,55.78
2022-11-17T14:30:19.590Z,49.72
2022-11-17T14:35:15.441Z,60.90
2022-11-17T14:40:19.860Z,50.38
2022-11-17T14:45:16.117Z,55.65
2022-11-17T14:50:15.485Z,52.60
2022-11-17T14:55:16.273Z,50.95
2022-11-17T15:00:15.946Z,52.20
2022-11-17T15:05:13.968Z,50.72
2022-11-17T15:10:12.728Z,48.28
2022-11-17T15:15:13.673Z,50.10
2022-11-17T15:20:09.059Z,59.33
2022-11-17T15:25:03.459Z,50.20
2022-11-17T15:29:57.504Z,49.08
2022-11-17T15:34:54.844Z,54.97
2022-11-17T15:39:49.352Z,59.60
2022-11-17T15:44:45.206Z,58.13
2022-11-17T15:49:39.114Z,63.13
2022-11-17T15:54:32.485Z,63.70
2022-11-17T15:59:26.740Z,59.97
2022-11-17T16:04:20.473Z,69.63
2022-11-17T16:09:15.729Z,73.03
2022-11-17T16:14:15.279Z,73.55
2022-11-17T16:19:09.365Z,69.57
2022-11-17T16:24:04.117Z,66.00
2022-11-17T16:29:02.307Z,73.25
2022-11-17T16:33:59.752Z,76.60
2022-11-17T16:39:00.771Z,70.75
2022-11-17T16:44:31.088Z,75.85
2022-11-17T16:49:32.983Z,74.43
2022-11-17T16:54:27.243Z,88.88
2022-11-17T16:59:21.047Z,81.55
2022-11-17T17:04:14.927Z,77.15
2022-11-17T17:09:23.348Z,85.07
2022-11-17T17:14:22.294Z,92.13
2022-11-17T17:19:16.854Z,100.28
2022-11-17T17:24:11.710Z,97.22
2022-11-17T17:29:07.040Z,104.10
2022-11-17T17:34:01.943Z,96.63
2022-11-17T17:38:58.017Z,108.05
2022-11-17T17:44:07.969Z,109.82
2022-11-17T17:49:01.268Z,113.18
2022-11-17T17:54:01.327Z,105.03
2022-11-17T17:58:58.577Z,98.45
2022-11-17T18:03:55.368Z,96.72
2022-11-17T18:08:50.006Z,108.85
2022-11-17T18:13:46.135Z,153.30
2022-11-17T18:18:41.838Z,114.32
2022-11-17T18:23:38.033Z,103.47
2022-11-17T18:28:31.976Z,98.03
2022-11-17T18:33:26.043Z,99.90
2022-11-17T18:38:20.620Z,108.85
2022-11-17T18:43:14.726Z,95.15
2022-11-17T18:48:09.417Z,96.57
2022-11-17T18:53:03.998Z,88.50
2022-11-17T18:57:57.929Z,89.57
2022-11-17T19:02:52.393Z,82.35
2022-11-17T19:07:46.088Z,82.07
2022-11-17T19:12:40.984Z,76.72
2022-11-17T19:17:35.299Z,80.78
2022-11-17T19:22:30.204Z,86.07
2022-11-17T19:27:25.019Z,82.43
2022-11-17T19:32:19.623Z,82.80
2022-11-17T19:37:14.169Z,82.68
2022-11-17T19:42:08.504Z,83.88
2022-11-17T19:47:03.067Z,83.30
2022-11-17T19:51:57.346Z,76.93
2022-11-17T19:56:52.218Z,75.15
2022-11-17T20:01:46.055Z,95.30
2022-11-17T20:06:39.762Z,80.03
2022-11-17T20:11:33.736Z,88.68
2022-11-17T20:16:28.124Z,74.97
2022-11-17T20:21:22.171Z,88.28
2022-11-17T20:26:24.995Z,90.80
2022-11-17T20:31:22.570Z,97.83
2022-11-17T20:36:21.015Z,91.38
2022-11-17T20:41:14.246Z,109.18
2022-11-17T20:46:07.797Z,94.93
2022-11-17T20:51:07.487Z,93.50
2022-11-17T20:56:04.004Z,104.10
2022-11-17T21:00:57.254Z,93.80
2022-11-17T21:05:59.193Z,107.63
2022-11-17T21:11:03.647Z,100.63
2022-11-17T21:16:11.178Z,98.78
2022-11-17T21:21:09.294Z,96.25
2022-11-17T21:26:09.375Z,107.28
2022-11-17T21:31:06.248Z,99.90
2022-11-17T21:36:10.803Z,95.72
2022-11-17T21:41:08.957Z,106.22
2022-11-17T21:46:03.930Z,98.28
2022-11-17T21:50:57.734Z,109.15
2022-11-17T21:55:52.071Z,107.28
2022-11-17T22:00:46.443Z,110.22
2022-11-17T22:05:40.691Z,110.97
2022-11-17T22:10:36.263Z,108.20
2022-11-17T22:15:30.229Z,107.00
2022-11-17T22:20:23.925Z,111.07
2022-11-17T22:25:43.750Z,105.57
2022-11-17T22:30:31.733Z,105.28
2022-11-17T22:35:25.299Z,117.72
2022-11-17T22:40:19.601Z,117.15
2022-11-17T22:45:13.818Z,113.32
2022-11-17T22:50:10.063Z,119.53
2022-11-17T22:55:04.403Z,108.95
2022-11-17T22:59:59.135Z,122.03
2022-11-17T23:04:53.332Z,124.30
2022-11-17T23:09:47.720Z,113.57
2022-11-17T23:14:41.479Z,103.28
2022-11-17T23:19:34.716Z,103.50
2022-11-17T23:24:28.897Z,103.38
2022-11-17T23:29:22.928Z,115.82
2022-11-17T23:34:16.702Z,104.38
2022-11-17T23:39:11.385Z,117.03
2022-11-17T23:44:06.963Z,107.22
2022-11-17T23:49:01.440Z,109.55
2022-11-17T23:53:55.228Z,109.85
2022-11-17T23:58:48.563Z,109.85
